createdAt,value
2022-12-26T00:01:24.025Z,205.07
2022-12-26T00:03:51.677Z,199.53
2022-12-26T00:06:26.543Z,203.57
2022-12-26T00:08:55.326Z,200.37
2022-12-26T00:11:24.182Z,201.77
2022-12-26T00:14:01.191Z,201.10
2022-12-26T00:16:29.026Z,207.93
2022-12-26T00:18:56.491Z,201.40
2022-12-26T00:21:27.128Z,202.73
2022-12-26T00:23:56.572Z,203.23
2022-12-26T00:26:25.976Z,203.97
2022-12-26T00:28:55.516Z,199.50
2022-12-26T00:31:32.519Z,203.93
2022-12-26T00:34:01.474Z,215.10
2022-12-26T00:36:32.318Z,203.47
2022-12-26T00:39:01.879Z,201.67
2022-12-26T00:41:29.901Z,208.70
2022-12-26T00:43:57.597Z,202.33
2022-12-26T00:46:25.760Z,208.17
2022-12-26T00:48:53.140Z,199.90
2022-12-26T00:51:20.837Z,204.17
2022-12-26T00:53:47.969Z,202.00
2022-12-26T00:56:15.960Z,199.33
2022-12-26T00:58:43.975Z,202.30
2022-12-26T01:01:18.539Z,205.83
2022-12-26T01:03:47.713Z,201.33
2022-12-26T01:06:15.592Z,202.70
2022-12-26T01:08:42.919Z,204.67
2022-12-26T01:11:14.224Z,199.67
2022-12-26T01:13:41.988Z,206.67
2022-12-26T01:16:09.882Z,197.93
2022-12-26T01:18:37.210Z,207.70
2022-12-26T01:21:10.779Z,207.23
2022-12-26T01:23:37.840Z,206.53
2022-12-26T01:26:16.616Z,209.93
2022-12-26T01:28:51.876Z,201.10
2022-12-26T01:31:21.580Z,209.63
2022-12-26T01:33:48.993Z,205.03
2022-12-26T01:36:17.853Z,203.63
2022-12-26T01:38:45.682Z,207.30
2022-12-26T01:41:21.964Z,205.57
2022-12-26T01:43:57.540Z,204.27
2022-12-26T01:46:45.546Z,202.33
2022-12-26T01:49:36.847Z,206.47
2022-12-26T01:52:10.090Z,210.37
2022-12-26T01:54:43.068Z,201.73
2022-12-26T01:57:27.365Z,205.10
2022-12-26T01:59:57.394Z,204.47
2022-12-26T02:02:28.043Z,205.53
2022-12-26T02:05:14.421Z,209.80
2022-12-26T02:07:45.740Z,204.50
2022-12-26T02:10:20.691Z,202.33
2022-12-26T02:12:48.625Z,208.90
2022-12-26T02:15:17.777Z,203.17
2022-12-26T02:17:46.935Z,202.47
2022-12-26T02:20:25.490Z,204.93
2022-12-26T02:23:22.989Z,208.20
2022-12-26T02:26:23.823Z,206.73
2022-12-26T02:29:47.256Z,205.80
2022-12-26T02:32:39.941Z,193.63
2022-12-26T02:35:44.554Z,207.37
2022-12-26T02:38:47.966Z,204.00
2022-12-26T02:41:26.185Z,203.43
2022-12-26T02:44:31.177Z,199.10
2022-12-26T02:48:02.693Z,196.27
2022-12-26T02:51:12.724Z,198.43
2022-12-26T02:54:16.448Z,201.57
2022-12-26T02:57:08.772Z,199.07
2022-12-26T03:00:12.711Z,198.87
2022-12-26T03:03:06.480Z,202.60
2022-12-26T03:06:04.423Z,203.77
2022-12-26T03:08:56.811Z,207.87
2022-12-26T03:11:50.959Z,205.63
2022-12-26T03:14:24.638Z,203.80
2022-12-26T03:17:20.151Z,215.50
2022-12-26T03:20:01.818Z,210.07
2022-12-26T03:22:49.111Z,206.97
2022-12-26T03:26:04.556Z,202.13
2022-12-26T03:28:32.248Z,212.33
2022-12-26T03:31:14.434Z,207.10
2022-12-26T03:34:04.215Z,206.90
2022-12-26T03:37:48.269Z,206.80
2022-12-26T03:40:45.518Z,203.63
2022-12-26T03:43:59.431Z,203.80
2022-12-26T03:47:43.013Z,197.17
2022-12-26T03:51:08.076Z,193.60
2022-12-26T03:54:09.520Z,209.30
2022-12-26T03:57:04.338Z,196.17
2022-12-26T04:00:30.783Z,196.70
2022-12-26T04:03:31.758Z,204.73
2022-12-26T04:06:22.830Z,193.97
2022-12-26T04:09:22.349Z,198.20
2022-12-26T04:12:08.052Z,199.67
2022-12-26T04:15:19.428Z,208.97
2022-12-26T04:18:18.046Z,190.50
2022-12-26T04:21:36.528Z,190.07
2022-12-26T04:24:37.607Z,188.87
2022-12-26T04:27:25.120Z,188.83
2022-12-26T04:30:10.957Z,192.53
2022-12-26T04:33:04.952Z,190.93
2022-12-26T04:36:12.116Z,186.73
2022-12-26T04:39:04.154Z,183.73
2022-12-26T04:41:52.555Z,184.80
2022-12-26T04:44:24.427Z,189.23
2022-12-26T04:46:53.783Z,184.43
2022-12-26T04:49:39.993Z,185.17
2022-12-26T04:52:14.643Z,187.80
2022-12-26T04:54:42.450Z,188.00
2022-12-26T04:57:11.283Z,186.43
2022-12-26T04:59:38.449Z,185.80
2022-12-26T05:02:23.956Z,184.87
2022-12-26T05:05:09.363Z,185.70
2022-12-26T05:07:55.874Z,186.33
2022-12-26T05:10:27.735Z,183.23
2022-12-26T05:12:56.075Z,182.00
2022-12-26T05:15:23.447Z,185.77
2022-12-26T05:18:08.901Z,179.10
2022-12-26T05:20:38.570Z,180.40
2022-12-26T05:23:32.515Z,183.90
2022-12-26T05:26:17.869Z,182.03
2022-12-26T05:28:45.661Z,180.97
2022-12-26T05:31:17.984Z,182.80
2022-12-26T05:34:04.000Z,182.20
2022-12-26T05:36:40.113Z,181.00
2022-12-26T05:39:09.240Z,180.97
2022-12-26T05:41:37.457Z,187.33
2022-12-26T05:44:05.286Z,180.30
2022-12-26T05:46:33.040Z,180.63
2022-12-26T05:49:00.186Z,181.17
2022-12-26T05:51:27.536Z,183.13
2022-12-26T05:53:55.077Z,181.77
2022-12-26T05:56:22.556Z,183.87
2022-12-26T05:58:56.512Z,182.27
2022-12-26T06:01:24.715Z,180.27
2022-12-26T06:03:55.919Z,179.10
2022-12-26T06:06:24.444Z,177.00
2022-12-26T06:08:53.948Z,177.33
2022-12-26T06:11:21.813Z,189.10
2022-12-26T06:13:49.366Z,179.03
2022-12-26T06:16:18.500Z,176.57
2022-12-26T06:18:46.670Z,178.13
2022-12-26T06:21:19.581Z,180.20
2022-12-26T06:23:47.448Z,178.73
2022-12-26T06:26:15.118Z,175.73
2022-12-26T06:28:43.714Z,181.23
2022-12-26T06:31:22.568Z,183.67
2022-12-26T06:34:02.073Z,184.70
2022-12-26T06:36:29.966Z,184.37
2022-12-26T06:38:57.732Z,188.03
2022-12-26T06:41:25.966Z,179.13
2022-12-26T06:43:54.041Z,176.67
2022-12-26T06:46:24.354Z,178.27
2022-12-26T06:48:52.480Z,181.50
2022-12-26T06:51:23.959Z,178.40
2022-12-26T06:53:52.491Z,178.13
2022-12-26T06:56:23.694Z,179.10
2022-12-26T06:59:02.883Z,192.07
2022-12-26T07:01:33.346Z,187.40
2022-12-26T07:04:01.174Z,193.40
2022-12-26T07:06:37.029Z,187.17
2022-12-26T07:09:10.967Z,178.93
2022-12-26T07:11:40.630Z,185.63
2022-12-26T07:14:09.316Z,186.23
2022-12-26T07:16:38.601Z,184.97
2022-12-26T07:19:06.419Z,186.00
2022-12-26T07:21:40.092Z,184.07
2022-12-26T07:24:18.410Z,183.83
2022-12-26T07:26:46.343Z,180.73
2022-12-26T07:29:14.787Z,182.67
2022-12-26T07:31:42.866Z,183.17
2022-12-26T07:34:10.256Z,184.83
2022-12-26T07:36:37.446Z,182.63
2022-12-26T07:39:04.594Z,181.43
2022-12-26T07:41:49.894Z,183.73
2022-12-26T07:44:17.257Z,182.20
2022-12-26T07:46:46.653Z,182.97
2022-12-26T07:49:14.173Z,182.47
2022-12-26T07:51:42.345Z,180.30
2022-12-26T07:54:11.553Z,180.00
2022-12-26T07:56:40.044Z,189.50
2022-12-26T07:59:07.769Z,183.17
2022-12-26T08:01:35.024Z,185.67
2022-12-26T08:04:02.671Z,184.50
2022-12-26T08:06:29.831Z,185.03
2022-12-26T08:08:58.834Z,182.53
2022-12-26T08:11:28.541Z,183.93
2022-12-26T08:13:55.580Z,181.93
2022-12-26T08:16:23.347Z,181.23
2022-12-26T08:18:50.461Z,184.97
2022-12-26T08:21:17.914Z,185.57
2022-12-26T08:23:46.484Z,186.07
2022-12-26T08:26:20.703Z,181.60
2022-12-26T08:28:48.268Z,190.73
2022-12-26T08:31:16.362Z,183.63
2022-12-26T08:33:43.952Z,185.60
2022-12-26T08:36:13.348Z,191.73
2022-12-26T08:38:41.089Z,183.87
2022-12-26T08:41:08.907Z,189.60
2022-12-26T08:44:16.449Z,185.87
2022-12-26T08:46:24.087Z,182.27
2022-12-26T08:48:52.144Z,180.97
2022-12-26T08:51:23.493Z,188.60
2022-12-26T08:53:53.342Z,189.47
2022-12-26T08:56:24.209Z,189.07
2022-12-26T08:58:52.162Z,196.30
2022-12-26T09:01:26.005Z,193.97
2022-12-26T09:03:59.553Z,192.57
2022-12-26T09:06:27.846Z,188.07
2022-12-26T09:08:55.339Z,187.20
2022-12-26T09:11:28.706Z,189.23
2022-12-26T09:13:58.238Z,185.17
2022-12-26T09:16:35.578Z,190.57
2022-12-26T09:19:06.786Z,184.43
2022-12-26T09:21:34.014Z,188.37
2022-12-26T09:24:04.710Z,187.57
2022-12-26T09:26:33.012Z,191.27
2022-12-26T09:29:00.602Z,191.97
2022-12-26T09:31:34.657Z,192.93
2022-12-26T09:34:07.423Z,200.17
2022-12-26T09:36:40.731Z,190.77
2022-12-26T09:39:08.612Z,194.43
2022-12-26T09:41:48.323Z,196.17
2022-12-26T09:44:26.110Z,194.50
2022-12-26T09:47:17.288Z,196.83
2022-12-26T09:50:01.094Z,190.67
2022-12-26T09:52:43.083Z,193.73
2022-12-26T09:55:35.457Z,194.53
2022-12-26T09:58:20.232Z,192.67
2022-12-26T10:00:59.307Z,192.10
2022-12-26T10:03:27.871Z,196.80
2022-12-26T10:06:14.791Z,195.87
2022-12-26T10:09:21.852Z,200.13
2022-12-26T10:11:58.853Z,197.93
2022-12-26T10:15:14.071Z,193.10
2022-12-26T10:17:59.576Z,198.83
2022-12-26T10:21:13.676Z,200.13
2022-12-26T10:23:45.530Z,209.73
2022-12-26T10:26:27.436Z,200.87
2022-12-26T10:28:58.644Z,198.00
2022-12-26T10:31:46.541Z,199.63
2022-12-26T10:34:19.292Z,201.43
2022-12-26T10:37:00.468Z,199.17
2022-12-26T10:39:49.180Z,201.93
2022-12-26T10:42:34.643Z,202.00
2022-12-26T10:45:03.304Z,205.10
2022-12-26T10:47:45.861Z,199.80
2022-12-26T10:50:28.093Z,200.07
2022-12-26T10:52:58.429Z,201.50
2022-12-26T10:55:34.458Z,199.93
2022-12-26T10:58:25.108Z,202.13
2022-12-26T11:00:52.463Z,202.17
2022-12-26T11:03:21.268Z,201.77
2022-12-26T11:06:09.390Z,200.63
2022-12-26T11:08:49.573Z,200.60
2022-12-26T11:11:46.172Z,203.97
2022-12-26T11:14:41.607Z,204.83
2022-12-26T11:17:25.992Z,201.63
2022-12-26T11:20:12.174Z,204.53
2022-12-26T11:22:39.805Z,202.73
2022-12-26T11:25:09.959Z,204.63
2022-12-26T11:27:40.871Z,227.00
2022-12-26T11:30:23.022Z,223.87
2022-12-26T11:33:08.428Z,205.53
2022-12-26T11:36:10.916Z,207.20
2022-12-26T11:39:02.221Z,215.60
2022-12-26T11:41:31.851Z,233.57
2022-12-26T11:44:13.642Z,213.60
2022-12-26T11:46:44.089Z,215.50
2022-12-26T11:49:23.673Z,229.77
2022-12-26T11:51:58.509Z,213.53
2022-12-26T11:54:34.809Z,219.37
2022-12-26T11:57:27.305Z,217.00
2022-12-26T11:59:56.055Z,212.93
2022-12-26T12:02:32.150Z,209.83
2022-12-26T12:05:12.784Z,211.73
2022-12-26T12:08:04.445Z,212.03
2022-12-26T12:11:02.917Z,206.40
2022-12-26T12:13:58.019Z,214.80
2022-12-26T12:16:40.273Z,213.03
2022-12-26T12:19:45.929Z,212.03
2022-12-26T12:22:45.157Z,206.73
2022-12-26T12:25:53.618Z,218.10
2022-12-26T12:28:28.080Z,221.47
2022-12-26T12:31:09.292Z,216.20
2022-12-26T12:33:55.653Z,208.77
2022-12-26T12:37:19.941Z,203.87
2022-12-26T12:40:42.677Z,211.43
2022-12-26T12:43:42.209Z,215.23
2022-12-26T12:46:34.040Z,215.30
2022-12-26T12:49:02.651Z,222.33
2022-12-26T12:51:48.896Z,245.13
2022-12-26T12:54:30.189Z,345.83
2022-12-26T12:57:28.460Z,279.67
2022-12-26T13:00:17.221Z,238.60
2022-12-26T13:02:55.204Z,217.67
2022-12-26T13:05:54.518Z,221.53
2022-12-26T13:09:03.437Z,217.27
2022-12-26T13:11:53.814Z,219.47
2022-12-26T13:14:36.569Z,211.27
2022-12-26T13:17:08.960Z,208.33
2022-12-26T13:20:02.548Z,204.40
2022-12-26T13:23:00.621Z,212.50
2022-12-26T13:25:35.576Z,215.57
2022-12-26T13:28:12.230Z,207.10
2022-12-26T13:30:41.069Z,207.53
2022-12-26T13:33:20.976Z,204.60
2022-12-26T13:36:00.148Z,208.90
2022-12-26T13:38:56.051Z,211.50
2022-12-26T13:41:44.627Z,208.87
2022-12-26T13:44:20.978Z,212.20
2022-12-26T13:46:48.075Z,207.20
2022-12-26T13:49:36.608Z,211.33
2022-12-26T13:52:14.508Z,211.60
2022-12-26T13:54:47.764Z,210.90
2022-12-26T13:57:42.668Z,209.03
2022-12-26T14:00:22.201Z,210.07
2022-12-26T14:03:20.169Z,215.27
2022-12-26T14:06:23.249Z,221.27
2022-12-26T14:09:48.170Z,211.77
2022-12-26T14:12:33.248Z,206.17
2022-12-26T14:15:24.964Z,209.37
2022-12-26T14:18:46.928Z,205.90
2022-12-26T14:21:29.659Z,209.83
2022-12-26T14:24:11.057Z,211.00
2022-12-26T14:26:45.910Z,205.67
2022-12-26T14:29:33.596Z,212.20
2022-12-26T14:32:29.433Z,248.57
2022-12-26T14:35:34.485Z,240.40
2022-12-26T14:38:35.595Z,222.93
2022-12-26T14:41:36.891Z,220.93
2022-12-26T14:44:21.541Z,223.00
2022-12-26T14:46:53.363Z,137.45
2022-12-26T14:49:44.396Z,208.47
2022-12-26T14:52:26.409Z,219.30
2022-12-26T14:54:55.311Z,212.97
2022-12-26T14:57:43.981Z,214.63
2022-12-26T15:00:23.748Z,210.20
2022-12-26T15:03:01.592Z,216.60
2022-12-26T15:05:37.262Z,215.97
2022-12-26T15:08:25.527Z,222.10
2022-12-26T15:10:59.692Z,209.60
2022-12-26T15:13:38.172Z,205.57
2022-12-26T15:16:14.937Z,206.37
2022-12-26T15:19:00.333Z,210.53
2022-12-26T15:22:23.720Z,222.37
2022-12-26T15:25:19.972Z,205.37
2022-12-26T15:28:09.446Z,217.87
2022-12-26T15:30:55.724Z,225.60
2022-12-26T15:33:45.614Z,238.90
2022-12-26T15:36:34.908Z,238.80
2022-12-26T15:39:30.765Z,241.03
2022-12-26T15:42:26.803Z,237.77
2022-12-26T15:45:16.705Z,212.63
2022-12-26T15:48:00.497Z,241.37
2022-12-26T15:50:48.871Z,225.20
2022-12-26T15:53:30.839Z,237.67
2022-12-26T15:56:33.648Z,239.93
2022-12-26T15:59:41.514Z,258.60
2022-12-26T16:02:26.974Z,240.10
2022-12-26T16:05:07.966Z,231.07
2022-12-26T16:07:42.147Z,230.43
2022-12-26T16:10:24.533Z,225.13
2022-12-26T16:13:11.856Z,224.63
2022-12-26T16:15:49.007Z,218.50
2022-12-26T16:18:31.513Z,226.83
2022-12-26T16:21:24.610Z,224.67
2022-12-26T16:23:54.625Z,225.57
2022-12-26T16:26:29.288Z,223.67
2022-12-26T16:28:59.376Z,217.60
2022-12-26T16:31:31.176Z,223.03
2022-12-26T16:34:00.020Z,221.33
2022-12-26T16:36:30.173Z,224.27
2022-12-26T16:38:57.449Z,222.00
2022-12-26T16:41:32.884Z,223.93
2022-12-26T16:44:37.029Z,213.93
2022-12-26T16:47:09.781Z,216.53
2022-12-26T16:49:37.790Z,210.00
2022-12-26T16:52:07.724Z,208.53
2022-12-26T16:54:42.364Z,212.37
2022-12-26T16:57:18.878Z,208.50
2022-12-26T16:59:58.552Z,217.23
2022-12-26T17:02:33.598Z,208.67
2022-12-26T17:05:18.704Z,213.43
2022-12-26T17:07:49.188Z,217.03
2022-12-26T17:10:37.463Z,211.60
2022-12-26T17:13:08.239Z,208.63
2022-12-26T17:15:40.303Z,209.73
2022-12-26T17:18:42.413Z,220.23
2022-12-26T17:21:25.328Z,226.93
2022-12-26T17:24:24.805Z,217.60
2022-12-26T17:27:09.231Z,227.33
2022-12-26T17:30:01.130Z,221.33
2022-12-26T17:32:30.969Z,212.53
2022-12-26T17:35:06.119Z,221.40
2022-12-26T17:37:33.872Z,216.27
2022-12-26T17:40:16.149Z,209.67
2022-12-26T17:42:50.842Z,208.40
2022-12-26T17:45:25.008Z,211.03
2022-12-26T17:47:54.977Z,208.33
2022-12-26T17:50:24.246Z,208.73
2022-12-26T17:52:51.745Z,209.40
2022-12-26T17:55:26.566Z,210.60
2022-12-26T17:57:53.837Z,216.40
2022-12-26T18:00:27.398Z,213.80
2022-12-26T18:02:54.740Z,214.70
2022-12-26T18:05:22.731Z,210.47
2022-12-26T18:07:52.055Z,212.23
2022-12-26T18:10:26.105Z,215.17
2022-12-26T18:12:53.435Z,212.13
2022-12-26T18:15:20.822Z,213.17
2022-12-26T18:17:50.098Z,216.37
2022-12-26T18:20:27.846Z,211.80
2022-12-26T18:22:56.141Z,218.50
2022-12-26T18:25:25.892Z,214.70
2022-12-26T18:27:53.595Z,217.13
2022-12-26T18:30:24.928Z,215.00
2022-12-26T18:32:53.686Z,213.93
2022-12-26T18:35:21.398Z,212.57
2022-12-26T18:37:52.727Z,219.83
2022-12-26T18:40:40.921Z,214.80
2022-12-26T18:43:09.364Z,235.80
2022-12-26T18:45:38.207Z,218.20
2022-12-26T18:48:07.286Z,217.83
2022-12-26T18:50:35.690Z,220.70
2022-12-26T18:53:03.153Z,228.37
2022-12-26T18:55:30.261Z,229.30
2022-12-26T18:57:58.032Z,216.60
2022-12-26T19:00:25.855Z,214.87
2022-12-26T19:02:55.629Z,220.17
2022-12-26T19:05:32.792Z,215.77
2022-12-26T19:08:01.976Z,215.60
2022-12-26T19:10:33.641Z,212.23
2022-12-26T19:13:05.661Z,208.20
2022-12-26T19:15:35.294Z,215.67
2022-12-26T19:18:04.614Z,214.43
2022-12-26T19:20:32.276Z,211.20
2022-12-26T19:22:59.322Z,222.23
2022-12-26T19:25:27.196Z,209.50
2022-12-26T19:27:55.181Z,213.33
2022-12-26T19:30:23.004Z,212.83
2022-12-26T19:32:51.149Z,209.13
2022-12-26T19:35:18.792Z,210.10
2022-12-26T19:37:46.080Z,217.23
2022-12-26T19:40:18.381Z,211.90
2022-12-26T19:42:48.704Z,225.60
2022-12-26T19:45:16.364Z,230.10
2022-12-26T19:47:43.497Z,207.63
2022-12-26T19:50:12.107Z,211.97
2022-12-26T19:52:40.764Z,204.33
2022-12-26T19:55:11.127Z,205.63
2022-12-26T19:57:38.247Z,204.67
2022-12-26T20:00:06.556Z,208.67
2022-12-26T20:02:40.029Z,207.70
2022-12-26T20:05:08.502Z,212.77
2022-12-26T20:07:35.848Z,218.53
2022-12-26T20:10:03.885Z,214.07
2022-12-26T20:12:30.986Z,225.43
2022-12-26T20:14:58.072Z,216.00
2022-12-26T20:17:25.174Z,219.90
2022-12-26T20:19:52.277Z,216.37
2022-12-26T20:22:19.344Z,204.03
2022-12-26T20:24:47.341Z,199.00
2022-12-26T20:27:15.860Z,206.97
2022-12-26T20:29:42.895Z,206.30
2022-12-26T20:32:10.035Z,203.77
2022-12-26T20:34:37.287Z,205.73
2022-12-26T20:37:04.553Z,203.30
2022-12-26T20:39:32.106Z,198.50
2022-12-26T20:41:59.488Z,203.60
2022-12-26T20:44:26.701Z,206.37
2022-12-26T20:46:53.994Z,201.07
2022-12-26T20:49:21.186Z,204.87
2022-12-26T20:51:48.291Z,205.30
2022-12-26T20:54:16.801Z,202.70
2022-12-26T20:56:45.355Z,201.83
2022-12-26T20:59:12.455Z,198.80
2022-12-26T21:01:40.457Z,207.87
2022-12-26T21:04:10.370Z,202.37
2022-12-26T21:06:38.314Z,202.43
2022-12-26T21:09:06.784Z,200.57
2022-12-26T21:11:38.322Z,201.90
2022-12-26T21:14:11.011Z,205.43
2022-12-26T21:17:01.516Z,203.67
2022-12-26T21:19:29.822Z,214.53
2022-12-26T21:21:57.572Z,202.10
2022-12-26T21:24:33.707Z,211.03
2022-12-26T21:27:01.068Z,210.67
2022-12-26T21:29:33.048Z,211.60
2022-12-26T21:32:02.583Z,207.47
2022-12-26T21:34:32.368Z,210.63
2022-12-26T21:37:18.888Z,204.27
2022-12-26T21:39:47.237Z,202.83
2022-12-26T21:42:14.427Z,203.77
2022-12-26T21:44:41.556Z,208.57
2022-12-26T21:47:09.067Z,204.53
2022-12-26T21:49:37.399Z,208.40
2022-12-26T21:52:06.845Z,202.87
2022-12-26T21:54:53.131Z,207.13
2022-12-26T21:57:20.911Z,205.03
2022-12-26T21:59:56.933Z,204.70
2022-12-26T22:02:48.342Z,205.97
2022-12-26T22:05:17.788Z,202.67
2022-12-26T22:07:45.775Z,200.40
2022-12-26T22:10:33.546Z,201.93
2022-12-26T22:13:01.764Z,204.70
2022-12-26T22:15:47.264Z,203.17
2022-12-26T22:18:14.482Z,202.33
2022-12-26T22:20:41.568Z,205.33
2022-12-26T22:23:08.599Z,204.30
2022-12-26T22:25:35.653Z,205.77
2022-12-26T22:28:02.886Z,202.70
2022-12-26T22:30:29.939Z,211.20
2022-12-26T22:32:56.988Z,208.53
2022-12-26T22:35:24.036Z,212.20
2022-12-26T22:37:51.303Z,201.27
2022-12-26T22:40:18.428Z,201.80
2022-12-26T22:42:45.480Z,205.30
2022-12-26T22:45:12.499Z,205.63
2022-12-26T22:47:39.554Z,212.20
2022-12-26T22:50:07.848Z,203.03
2022-12-26T22:52:34.972Z,204.30
2022-12-26T22:55:02.030Z,204.70
2022-12-26T22:57:29.062Z,206.10
2022-12-26T23:00:11.625Z,200.57
2022-12-26T23:02:39.048Z,208.10
2022-12-26T23:05:08.679Z,202.77
2022-12-26T23:07:36.154Z,208.43
2022-12-26T23:10:05.725Z,202.60
2022-12-26T23:12:45.529Z,200.73
2022-12-26T23:15:23.234Z,200.00
2022-12-26T23:18:35.132Z,200.03
2022-12-26T23:21:40.424Z,208.20
2022-12-26T23:24:30.041Z,200.53
2022-12-26T23:27:27.312Z,201.07
2022-12-26T23:30:14.238Z,204.50
2022-12-26T23:32:43.282Z,202.27
2022-12-26T23:35:12.134Z,200.33
2022-12-26T23:37:41.391Z,198.30
2022-12-26T23:40:11.172Z,197.73
2022-12-26T23:42:38.403Z,198.20
2022-12-26T23:45:06.644Z,205.20
2022-12-26T23:47:37.732Z,200.23
2022-12-26T23:50:07.326Z,200.27
2022-12-26T23:52:34.548Z,198.73
2022-12-26T23:55:01.851Z,199.83
2022-12-26T23:57:29.024Z,201.57
2022-12-26T23:59:56.116Z,198.37
